createdAt,value
2017-11-17T00:03:13.545Z,3.30
2017-11-17T00:05:42.573Z,3.30
2017-11-17T00:08:13.687Z,3.40
2017-11-17T00:10:47.512Z,3.40
2017-11-17T00:13:19.394Z,3.40
2017-11-17T00:15:49.778Z,3.40
2017-11-17T00:18:21.174Z,3.40
2017-11-17T00:20:50.328Z,3.40
2017-11-17T00:23:23.200Z,3.30
2017-11-17T00:25:56.828Z,3.30
2017-11-17T00:28:26.562Z,3.40
2017-11-17T00:30:54.107Z,3.40
2017-11-17T00:33:21.992Z,3.40
2017-11-17T00:35:49.539Z,3.40
2017-11-17T00:38:17.035Z,3.40
2017-11-17T00:40:44.545Z,3.40
2017-11-17T00:43:14.349Z,3.40
2017-11-17T00:45:42.236Z,3.40
2017-11-17T00:48:10.113Z,3.40
2017-11-17T00:50:37.619Z,3.40
2017-11-17T00:53:05.139Z,3.40
2017-11-17T00:55:32.670Z,3.50
2017-11-17T00:58:00.164Z,3.40
2017-11-17T01:00:27.689Z,3.40
2017-11-17T01:02:55.571Z,3.40
2017-11-17T01:05:23.228Z,3.40
2017-11-17T01:07:50.787Z,3.40
2017-11-17T01:10:19.191Z,3.30
2017-11-17T01:12:46.696Z,3.30
2017-11-17T01:15:14.249Z,3.40
2017-11-17T01:17:41.751Z,3.40
2017-11-17T01:20:09.283Z,3.40
2017-11-17T01:22:37.176Z,3.30
2017-11-17T01:25:04.691Z,3.30
2017-11-17T01:27:33.153Z,3.40
2017-11-17T01:30:00.656Z,3.40
2017-11-17T01:32:28.144Z,3.40
2017-11-17T01:34:55.672Z,3.40
2017-11-17T01:37:23.589Z,3.60
2017-11-17T01:39:51.068Z,3.60
2017-11-17T01:42:18.573Z,3.50
2017-11-17T01:44:46.069Z,3.50
2017-11-17T01:47:15.466Z,3.40
2017-11-17T01:49:42.982Z,3.40
2017-11-17T01:52:10.863Z,3.40
2017-11-17T01:54:38.375Z,3.40
2017-11-17T01:57:05.863Z,3.40
2017-11-17T01:59:33.769Z,3.40
2017-11-17T02:02:02.212Z,3.40
2017-11-17T02:04:30.109Z,3.50
2017-11-17T02:06:57.615Z,3.50
2017-11-17T02:09:26.073Z,3.50
2017-11-17T02:11:53.592Z,3.50
2017-11-17T02:14:22.073Z,3.40
2017-11-17T02:16:49.953Z,3.40
2017-11-17T02:19:17.461Z,3.30
2017-11-17T02:21:44.982Z,3.40
2017-11-17T02:24:12.464Z,3.40
2017-11-17T02:26:39.966Z,3.40
2017-11-17T02:29:07.492Z,3.40
2017-11-17T02:31:35.414Z,3.40
2017-11-17T02:34:02.928Z,3.40
2017-11-17T02:36:31.792Z,3.30
2017-11-17T02:39:00.329Z,3.30
2017-11-17T02:41:28.032Z,3.40
2017-11-17T02:43:55.543Z,3.40
2017-11-17T02:46:23.060Z,3.30
2017-11-17T02:48:50.582Z,3.30
2017-11-17T02:51:18.551Z,3.40
2017-11-17T02:53:46.048Z,3.40
2017-11-17T02:56:13.581Z,3.40
2017-11-17T02:58:41.071Z,3.40
2017-11-17T03:01:08.580Z,3.30
2017-11-17T03:03:36.065Z,3.30
2017-11-17T03:06:03.581Z,3.30
2017-11-17T03:08:31.092Z,3.30
2017-11-17T03:10:58.585Z,3.30
2017-11-17T03:13:26.484Z,3.40
2017-11-17T03:15:53.969Z,3.40
2017-11-17T03:18:21.487Z,3.50
2017-11-17T03:20:48.984Z,3.40
2017-11-17T03:23:16.519Z,3.30
2017-11-17T03:25:44.020Z,3.30
2017-11-17T03:28:11.519Z,3.30
2017-11-17T03:30:39.032Z,3.30
2017-11-17T03:33:06.525Z,3.40
2017-11-17T03:35:34.052Z,3.40
2017-11-17T03:38:01.559Z,3.30
2017-11-17T03:40:29.045Z,3.40
2017-11-17T03:42:56.568Z,3.40
2017-11-17T03:45:24.068Z,3.40
2017-11-17T03:47:51.583Z,3.40
2017-11-17T03:50:19.068Z,3.30
2017-11-17T03:52:46.569Z,3.30
2017-11-17T03:55:14.471Z,3.40
2017-11-17T03:57:42.028Z,3.40
2017-11-17T04:00:09.533Z,3.30
2017-11-17T04:02:37.031Z,3.30
2017-11-17T04:05:04.912Z,3.20
2017-11-17T04:07:32.431Z,3.20
2017-11-17T04:10:00.313Z,3.20
2017-11-17T04:12:28.196Z,3.30
2017-11-17T04:14:57.717Z,3.30
2017-11-17T04:17:25.195Z,3.30
2017-11-17T04:19:52.732Z,3.30
2017-11-17T04:22:20.230Z,3.30
2017-11-17T04:24:47.730Z,3.40
2017-11-17T04:27:15.248Z,3.30
2017-11-17T04:29:42.776Z,3.40
2017-11-17T04:32:10.282Z,3.40
2017-11-17T04:34:38.182Z,3.30
2017-11-17T04:37:05.671Z,3.30
2017-11-17T04:39:35.144Z,3.30
2017-11-17T04:42:02.629Z,3.20
2017-11-17T04:44:30.109Z,3.20
2017-11-17T04:46:57.613Z,3.30
2017-11-17T04:49:25.108Z,3.40
2017-11-17T04:51:52.635Z,3.50
2017-11-17T04:54:20.159Z,3.50
2017-11-17T04:56:48.088Z,3.30
2017-11-17T04:59:15.598Z,3.30
2017-11-17T05:01:43.499Z,3.30
2017-11-17T05:04:11.018Z,3.40
2017-11-17T05:06:38.917Z,3.30
2017-11-17T05:09:08.418Z,3.30
2017-11-17T05:11:35.921Z,3.30
2017-11-17T05:14:03.405Z,3.30
2017-11-17T05:16:31.319Z,3.20
2017-11-17T05:18:59.202Z,3.20
2017-11-17T05:21:26.745Z,3.20
2017-11-17T05:23:55.214Z,3.20
2017-11-17T05:26:22.760Z,3.20
2017-11-17T05:28:50.466Z,3.20
2017-11-17T05:31:17.955Z,3.20
2017-11-17T05:33:45.937Z,3.10
2017-11-17T05:36:13.820Z,3.10
2017-11-17T05:38:41.325Z,3.10
2017-11-17T05:41:08.836Z,3.10
2017-11-17T05:43:38.296Z,3.20
2017-11-17T05:46:06.720Z,3.20
2017-11-17T05:48:34.228Z,3.20
2017-11-17T05:51:02.685Z,3.20
2017-11-17T05:53:31.128Z,3.20
2017-11-17T05:55:59.034Z,3.30
2017-11-17T05:58:27.522Z,3.30
2017-11-17T06:00:55.039Z,3.20
2017-11-17T06:03:22.548Z,3.30
2017-11-17T06:05:50.051Z,3.30
2017-11-17T06:08:18.285Z,3.30
2017-11-17T06:10:45.797Z,3.20
2017-11-17T06:13:13.279Z,3.20
2017-11-17T06:15:41.707Z,3.20
2017-11-17T06:18:10.589Z,3.20
2017-11-17T06:20:38.076Z,3.20
2017-11-17T06:23:05.581Z,3.20
2017-11-17T06:25:33.069Z,3.20
2017-11-17T06:28:00.981Z,3.20
2017-11-17T06:30:29.404Z,3.20
2017-11-17T06:32:56.948Z,3.30
2017-11-17T06:35:24.439Z,3.30
2017-11-17T06:37:52.315Z,3.30
2017-11-17T06:40:20.212Z,3.30
2017-11-17T06:42:48.858Z,3.30
2017-11-17T06:45:18.339Z,3.30
2017-11-17T06:47:45.863Z,3.30
2017-11-17T06:50:13.375Z,3.20
2017-11-17T06:52:41.317Z,3.30
2017-11-17T06:55:08.807Z,3.30
2017-11-17T06:57:36.689Z,3.30
2017-11-17T07:00:04.192Z,3.30
2017-11-17T07:02:31.694Z,3.30
2017-11-17T07:04:59.585Z,3.30
2017-11-17T07:07:27.086Z,3.30
2017-11-17T07:09:55.029Z,3.50
2017-11-17T07:12:22.512Z,3.50
2017-11-17T07:14:50.965Z,3.50
2017-11-17T07:17:18.500Z,3.50
2017-11-17T07:19:45.984Z,3.40
2017-11-17T07:22:13.493Z,3.50
2017-11-17T07:24:41.390Z,3.60
2017-11-17T07:27:09.285Z,3.70
2017-11-17T07:29:36.785Z,3.70
2017-11-17T07:32:04.692Z,3.70
2017-11-17T07:34:32.175Z,3.70
2017-11-17T07:36:59.669Z,3.70
2017-11-17T07:39:27.606Z,3.70
2017-11-17T07:41:55.104Z,3.70
2017-11-17T07:44:23.009Z,3.60
2017-11-17T07:46:51.452Z,3.60
2017-11-17T07:49:19.357Z,3.60
2017-11-17T07:51:46.861Z,3.60
2017-11-17T07:54:14.772Z,3.70
2017-11-17T07:56:42.272Z,3.70
2017-11-17T07:59:09.769Z,3.70
2017-11-17T08:01:37.760Z,3.70
2017-11-17T08:04:05.256Z,3.70
2017-11-17T08:06:32.785Z,3.70
2017-11-17T08:09:01.241Z,3.70
2017-11-17T08:11:28.750Z,3.70
2017-11-17T08:13:56.238Z,3.80
2017-11-17T08:16:24.156Z,3.80
2017-11-17T08:18:51.764Z,3.80
2017-11-17T08:21:25.818Z,4.00
2017-11-17T08:23:55.232Z,4.00
2017-11-17T08:26:22.748Z,4.00
2017-11-17T08:28:50.648Z,4.00
2017-11-17T08:31:19.079Z,4.00
2017-11-17T08:33:46.982Z,4.00
2017-11-17T08:36:14.477Z,4.00
2017-11-17T08:38:42.936Z,4.00
2017-11-17T08:41:10.440Z,4.00
2017-11-17T08:43:38.333Z,4.00
2017-11-17T08:46:05.887Z,4.00
2017-11-17T08:48:33.770Z,4.00
2017-11-17T08:51:02.257Z,4.00
2017-11-17T08:53:29.737Z,4.00
2017-11-17T08:55:57.239Z,4.00
2017-11-17T08:58:25.139Z,4.10
2017-11-17T09:00:52.634Z,4.10
2017-11-17T09:03:20.137Z,4.20
2017-11-17T09:05:48.956Z,4.10
2017-11-17T09:08:16.443Z,4.20
2017-11-17T09:10:43.948Z,4.20
2017-11-17T09:13:11.428Z,4.10
2017-11-17T09:15:38.944Z,4.20
2017-11-17T09:18:06.834Z,4.30
2017-11-17T09:20:34.341Z,4.30
2017-11-17T09:23:01.829Z,4.30
2017-11-17T09:25:29.725Z,4.30
2017-11-17T09:27:59.221Z,4.30
2017-11-17T09:30:26.716Z,4.30
2017-11-17T09:32:54.234Z,4.20
2017-11-17T09:35:21.732Z,4.10
2017-11-17T09:37:51.177Z,4.20
2017-11-17T09:40:19.064Z,4.20
2017-11-17T09:42:47.595Z,4.20
2017-11-17T09:45:15.080Z,4.20
2017-11-17T09:47:43.032Z,4.30
2017-11-17T09:50:10.572Z,4.30
2017-11-17T09:52:38.057Z,4.30
2017-11-17T09:55:05.565Z,4.40
2017-11-17T09:57:33.059Z,4.40
2017-11-17T10:00:00.541Z,4.40
2017-11-17T10:02:28.450Z,4.50
2017-11-17T10:04:55.979Z,4.50
2017-11-17T10:07:23.878Z,4.50
2017-11-17T10:09:51.356Z,4.60
2017-11-17T10:12:18.852Z,4.60
2017-11-17T10:14:46.757Z,4.60
2017-11-17T10:17:14.265Z,4.60
2017-11-17T10:19:42.179Z,4.60
2017-11-17T10:22:10.427Z,4.60
2017-11-17T10:24:38.308Z,4.60
2017-11-17T10:27:05.816Z,4.60
2017-11-17T10:29:33.329Z,4.80
2017-11-17T10:32:00.835Z,4.90
2017-11-17T10:34:28.319Z,4.80
2017-11-17T10:36:56.222Z,4.80
2017-11-17T10:39:25.743Z,4.80
2017-11-17T10:41:53.273Z,4.80
2017-11-17T10:44:20.793Z,4.80
2017-11-17T10:46:48.720Z,5.00
2017-11-17T10:49:16.222Z,5.00
2017-11-17T10:51:43.726Z,5.10
2017-11-17T10:54:11.232Z,5.10
2017-11-17T10:56:38.730Z,5.10
2017-11-17T10:59:08.711Z,5.20
2017-11-17T11:01:36.224Z,5.20
2017-11-17T11:04:03.730Z,5.30
2017-11-17T11:06:31.720Z,5.40
2017-11-17T11:08:59.309Z,5.30
2017-11-17T11:11:32.407Z,5.30
2017-11-17T11:13:59.920Z,5.30
2017-11-17T11:16:27.818Z,5.30
2017-11-17T11:18:55.300Z,5.30
2017-11-17T11:21:22.812Z,5.30
2017-11-17T11:23:50.684Z,5.50
2017-11-17T11:26:18.586Z,5.60
2017-11-17T11:28:46.092Z,5.60
2017-11-17T11:31:14.909Z,5.80
2017-11-17T11:33:42.417Z,5.80
2017-11-17T11:36:09.949Z,5.80
2017-11-17T11:38:37.485Z,6.00
2017-11-17T11:41:04.986Z,6.10
2017-11-17T11:43:32.560Z,6.10
2017-11-17T11:46:00.072Z,6.10
2017-11-17T11:48:27.681Z,6.00
2017-11-17T11:50:55.217Z,5.90
2017-11-17T11:53:22.736Z,5.90
2017-11-17T11:55:50.264Z,5.70
2017-11-17T11:58:19.001Z,5.50
2017-11-17T12:00:46.500Z,5.50
2017-11-17T12:03:13.999Z,5.60
2017-11-17T12:05:41.482Z,5.70
2017-11-17T12:08:10.960Z,5.90
2017-11-17T12:10:38.459Z,6.10
2017-11-17T12:13:05.968Z,6.00
2017-11-17T12:15:33.882Z,5.90
2017-11-17T12:18:03.367Z,5.90
2017-11-17T12:20:30.855Z,6.00
2017-11-17T12:22:58.352Z,6.20
2017-11-17T12:25:25.867Z,6.10
2017-11-17T12:27:54.424Z,6.10
2017-11-17T12:30:21.912Z,5.90
2017-11-17T12:32:49.392Z,6.00
2017-11-17T12:35:16.892Z,6.00
2017-11-17T12:37:44.386Z,6.00
2017-11-17T12:40:11.913Z,6.00
2017-11-17T12:42:39.412Z,5.90
2017-11-17T12:45:06.933Z,5.80
2017-11-17T12:47:34.422Z,5.80
2017-11-17T12:50:01.929Z,5.60
2017-11-17T12:52:29.424Z,5.70
2017-11-17T12:54:56.908Z,5.90
2017-11-17T12:57:24.449Z,5.80
2017-11-17T12:59:51.913Z,5.90
2017-11-17T13:02:19.540Z,5.80
2017-11-17T13:04:47.081Z,5.80
2017-11-17T13:07:14.573Z,5.70
2017-11-17T13:09:42.092Z,5.80
2017-11-17T13:12:09.582Z,5.90
2017-11-17T13:14:39.059Z,5.80
2017-11-17T13:17:06.581Z,5.90
2017-11-17T13:19:34.094Z,5.90
2017-11-17T13:22:03.598Z,5.90
2017-11-17T13:24:31.105Z,5.90
2017-11-17T13:26:58.608Z,5.90
2017-11-17T13:29:26.261Z,6.00
2017-11-17T13:31:53.831Z,5.90
2017-11-17T13:34:21.364Z,5.90
2017-11-17T13:36:50.861Z,5.90
2017-11-17T13:39:18.796Z,5.90
2017-11-17T13:41:46.285Z,5.90
2017-11-17T13:44:14.200Z,6.00
2017-11-17T13:46:41.684Z,6.00
2017-11-17T13:49:09.185Z,6.10
2017-11-17T13:51:36.673Z,6.30
2017-11-17T13:54:06.155Z,6.30
2017-11-17T13:56:33.643Z,6.20
2017-11-17T13:59:01.149Z,6.20
2017-11-17T14:01:29.041Z,6.10
2017-11-17T14:03:56.555Z,6.10
2017-11-17T14:06:26.023Z,6.10
2017-11-17T14:08:53.511Z,6.00
2017-11-17T14:11:21.003Z,6.00
2017-11-17T14:13:48.876Z,6.00
2017-11-17T14:16:16.782Z,6.10
2017-11-17T14:18:44.818Z,6.10
2017-11-17T14:21:14.244Z,6.10
2017-11-17T14:23:41.791Z,6.10
2017-11-17T14:26:09.363Z,6.20
2017-11-17T14:28:36.852Z,6.20
2017-11-17T14:31:05.289Z,6.10
2017-11-17T14:33:32.825Z,6.10
2017-11-17T14:36:00.802Z,6.10
2017-11-17T14:38:29.416Z,6.10
2017-11-17T14:40:56.899Z,6.20
2017-11-17T14:43:24.388Z,6.10
2017-11-17T14:45:52.294Z,6.00
2017-11-17T14:48:19.776Z,6.00
2017-11-17T14:50:47.284Z,6.00
2017-11-17T14:53:14.774Z,5.90
2017-11-17T14:55:42.269Z,5.90
2017-11-17T14:58:09.853Z,5.80
2017-11-17T15:00:38.713Z,5.80
2017-11-17T15:03:06.212Z,5.80
2017-11-17T15:05:33.725Z,5.80
2017-11-17T15:08:01.221Z,5.80
2017-11-17T15:10:29.127Z,5.80
2017-11-17T15:12:56.637Z,5.80
2017-11-17T15:15:24.156Z,5.80
2017-11-17T15:17:51.645Z,5.80
2017-11-17T15:20:19.555Z,5.80
2017-11-17T15:22:47.096Z,5.80
2017-11-17T15:25:14.604Z,5.80
2017-11-17T15:27:42.094Z,5.80
2017-11-17T15:30:10.044Z,5.90
2017-11-17T15:32:37.532Z,5.90
2017-11-17T15:35:05.454Z,5.80
2017-11-17T15:37:32.942Z,5.80
2017-11-17T15:40:00.858Z,5.90
2017-11-17T15:42:28.395Z,5.90
2017-11-17T15:44:55.892Z,5.90
2017-11-17T15:47:23.403Z,5.80
2017-11-17T15:49:51.287Z,5.80
2017-11-17T15:52:19.844Z,5.80
2017-11-17T15:54:47.717Z,5.80
2017-11-17T15:57:15.673Z,5.80
2017-11-17T15:59:43.539Z,5.80
2017-11-17T16:02:11.432Z,5.80
2017-11-17T16:04:38.971Z,5.80
2017-11-17T16:07:06.860Z,5.80
2017-11-17T16:09:34.365Z,5.80
2017-11-17T16:12:01.862Z,5.80
2017-11-17T16:14:29.827Z,5.80
2017-11-17T16:16:57.768Z,5.80
2017-11-17T16:19:26.199Z,5.80
2017-11-17T16:21:53.709Z,5.80
2017-11-17T16:24:21.209Z,5.90
2017-11-17T16:26:48.737Z,5.90
2017-11-17T16:29:16.675Z,5.80
2017-11-17T16:31:44.184Z,5.80
2017-11-17T16:34:11.712Z,5.80
2017-11-17T16:36:39.200Z,5.80
2017-11-17T16:39:08.107Z,5.70
2017-11-17T16:41:35.628Z,5.70
2017-11-17T16:44:03.547Z,5.80
2017-11-17T16:46:31.034Z,5.80
2017-11-17T16:48:58.537Z,5.70
2017-11-17T16:51:26.081Z,5.70
2017-11-17T16:53:53.980Z,5.70
2017-11-17T16:56:21.464Z,5.70
2017-11-17T16:58:48.951Z,5.80
2017-11-17T17:01:16.453Z,5.90
2017-11-17T17:03:43.959Z,5.90
2017-11-17T17:06:11.469Z,5.90
2017-11-17T17:08:39.054Z,5.80
2017-11-17T17:11:06.557Z,5.80
2017-11-17T17:13:35.388Z,5.70
2017-11-17T17:16:02.869Z,5.70
2017-11-17T17:18:30.375Z,5.80
2017-11-17T17:20:57.892Z,5.70
2017-11-17T17:23:25.411Z,5.70
2017-11-17T17:25:53.828Z,5.70
2017-11-17T17:28:21.376Z,5.70
2017-11-17T17:30:49.833Z,5.70
2017-11-17T17:33:17.317Z,5.70
2017-11-17T17:35:45.679Z,5.70
2017-11-17T17:38:13.167Z,5.70
2017-11-17T17:40:42.619Z,5.70
2017-11-17T17:43:10.110Z,5.70
2017-11-17T17:45:37.625Z,5.70
2017-11-17T17:48:05.134Z,5.70
2017-11-17T17:50:32.633Z,5.70
2017-11-17T17:53:00.135Z,5.70
2017-11-17T17:55:27.621Z,5.80
2017-11-17T17:57:55.135Z,5.80
2017-11-17T18:00:22.629Z,5.80
2017-11-17T18:02:50.147Z,5.80
2017-11-17T18:05:17.642Z,5.80
2017-11-17T18:07:45.228Z,5.80
2017-11-17T18:10:13.217Z,5.80
2017-11-17T18:12:40.717Z,5.80
2017-11-17T18:15:08.245Z,5.70
2017-11-17T18:17:35.751Z,5.70
2017-11-17T18:20:03.345Z,5.70
2017-11-17T18:22:31.241Z,5.70
2017-11-17T18:24:58.760Z,5.70
2017-11-17T18:27:26.662Z,5.70
2017-11-17T18:29:54.229Z,5.70
2017-11-17T18:32:21.798Z,5.70
2017-11-17T18:34:49.268Z,5.70
2017-11-17T18:37:16.808Z,5.70
2017-11-17T18:39:44.309Z,5.70
2017-11-17T18:42:12.229Z,5.70
2017-11-17T18:44:40.653Z,5.70
2017-11-17T18:47:09.140Z,5.70
2017-11-17T18:49:36.625Z,5.70
2017-11-17T18:52:04.117Z,5.70
2017-11-17T18:54:33.736Z,5.70
2017-11-17T18:57:01.229Z,5.70
2017-11-17T18:59:29.143Z,5.70
2017-11-17T19:01:56.637Z,5.70
2017-11-17T19:04:24.187Z,5.70
2017-11-17T19:06:51.737Z,5.70
2017-11-17T19:09:20.159Z,5.80
2017-11-17T19:11:47.652Z,5.80
2017-11-17T19:14:15.185Z,5.90
2017-11-17T19:16:43.151Z,6.00
2017-11-17T19:19:10.604Z,6.00
2017-11-17T19:21:38.495Z,6.20
2017-11-17T19:24:07.972Z,6.20
2017-11-17T19:26:35.873Z,6.00
2017-11-17T19:29:03.359Z,6.00
2017-11-17T19:31:30.858Z,6.00
2017-11-17T19:33:58.787Z,5.80
2017-11-17T19:36:26.269Z,5.80
2017-11-17T19:38:55.757Z,5.80
2017-11-17T19:41:25.172Z,5.80
2017-11-17T19:43:52.673Z,5.70
2017-11-17T19:46:22.176Z,5.70
2017-11-17T19:48:49.691Z,5.70
2017-11-17T19:51:17.173Z,5.80
2017-11-17T19:53:45.089Z,5.80
2017-11-17T19:56:12.600Z,5.80
2017-11-17T19:58:40.124Z,5.80
2017-11-17T20:01:07.637Z,5.80
2017-11-17T20:03:35.120Z,5.80
2017-11-17T20:06:02.622Z,5.90
2017-11-17T20:08:30.503Z,5.80
2017-11-17T20:10:58.408Z,5.80
2017-11-17T20:13:25.921Z,5.80
2017-11-17T20:15:53.797Z,5.80
2017-11-17T20:18:21.304Z,5.80
2017-11-17T20:20:48.812Z,5.80
2017-11-17T20:23:16.720Z,5.70
2017-11-17T20:25:44.204Z,5.70
2017-11-17T20:28:11.747Z,5.70
2017-11-17T20:30:39.241Z,5.80
2017-11-17T20:33:08.700Z,5.80
2017-11-17T20:35:36.188Z,5.80
2017-11-17T20:38:08.063Z,5.80
2017-11-17T20:40:38.226Z,5.90
2017-11-17T20:43:06.864Z,5.90
2017-11-17T20:45:37.292Z,5.80
2017-11-17T20:48:04.776Z,5.80
2017-11-17T20:50:33.234Z,5.80
2017-11-17T20:53:02.943Z,5.70
2017-11-17T20:55:33.001Z,5.80
2017-11-17T20:58:02.057Z,5.80
2017-11-17T21:00:31.897Z,5.70
2017-11-17T21:02:59.815Z,5.70
2017-11-17T21:05:27.377Z,5.70
2017-11-17T21:07:54.917Z,5.70
2017-11-17T21:10:22.426Z,5.70
2017-11-17T21:12:50.337Z,5.70
2017-11-17T21:15:17.877Z,5.70
2017-11-17T21:17:47.400Z,5.70
2017-11-17T21:20:14.908Z,5.70
2017-11-17T21:22:43.730Z,5.70
2017-11-17T21:25:11.254Z,5.80
2017-11-17T21:27:39.175Z,5.70
2017-11-17T21:30:06.661Z,5.70
2017-11-17T21:32:34.159Z,5.80
2017-11-17T21:35:01.653Z,5.80
2017-11-17T21:37:29.141Z,5.80
2017-11-17T21:39:56.651Z,5.80
2017-11-17T21:42:24.154Z,5.80
2017-11-17T21:44:51.681Z,5.80
2017-11-17T21:47:19.196Z,5.80
2017-11-17T21:49:48.073Z,5.90
2017-11-17T21:52:15.558Z,5.90
2017-11-17T21:54:43.057Z,5.90
2017-11-17T21:57:10.571Z,5.90
2017-11-17T21:59:39.273Z,5.90
2017-11-17T22:02:06.799Z,5.90
2017-11-17T22:04:34.680Z,5.90
2017-11-17T22:07:03.000Z,5.90
2017-11-17T22:09:30.511Z,5.90
2017-11-17T22:11:58.405Z,5.90
2017-11-17T22:14:27.941Z,5.90
2017-11-17T22:16:55.474Z,5.90
2017-11-17T22:19:22.976Z,5.90
2017-11-17T22:21:50.492Z,5.90
2017-11-17T22:24:18.465Z,5.90
2017-11-17T22:26:46.010Z,5.90
2017-11-17T22:29:13.525Z,5.90
2017-11-17T22:31:41.970Z,5.90
2017-11-17T22:34:09.521Z,5.80
2017-11-17T22:36:37.040Z,5.80
2017-11-17T22:39:04.961Z,5.80
2017-11-17T22:41:32.463Z,5.80
2017-11-17T22:44:00.377Z,5.80
2017-11-17T22:46:27.903Z,5.80
2017-11-17T22:48:55.413Z,5.90
2017-11-17T22:51:22.943Z,5.90
2017-11-17T22:53:50.467Z,5.90
2017-11-17T22:56:18.355Z,6.00
2017-11-17T22:58:45.861Z,6.00
2017-11-17T23:01:13.400Z,6.00
2017-11-17T23:03:40.900Z,6.00
2017-11-17T23:06:08.432Z,6.00
2017-11-17T23:08:37.906Z,6.10
2017-11-17T23:11:05.415Z,6.10
2017-11-17T23:13:32.953Z,6.00
2017-11-17T23:16:00.477Z,6.00
2017-11-17T23:18:27.978Z,5.90
2017-11-17T23:20:55.501Z,5.90
2017-11-17T23:23:23.694Z,5.90
2017-11-17T23:25:51.199Z,5.90
2017-11-17T23:28:19.266Z,5.80
2017-11-17T23:30:46.797Z,5.90
2017-11-17T23:33:14.292Z,5.90
2017-11-17T23:35:42.184Z,5.90
2017-11-17T23:38:09.936Z,5.90
2017-11-17T23:40:37.477Z,5.90
2017-11-17T23:43:05.360Z,5.90
2017-11-17T23:45:32.869Z,5.90
2017-11-17T23:48:00.370Z,5.90
2017-11-17T23:50:28.427Z,5.80
2017-11-17T23:52:58.382Z,5.80
2017-11-17T23:55:25.920Z,5.90
2017-11-17T23:57:53.475Z,5.90
